sensor_id;sensor_type;location;lat;lon;timestamp;P1;durP1;ratioP1;P2;durP2;ratioP2
16826;SDS011;8530;49.540;8.576;2022-12-18T00:00:47;62.20;;;36.10;;
16826;SDS011;8530;49.540;8.576;2022-12-18T00:03:14;69.63;;;37.70;;
16826;SDS011;8530;49.540;8.576;2022-12-18T00:05:46;73.57;;;38.37;;
16826;SDS011;8530;49.540;8.576;2022-12-18T00:08:13;63.37;;;35.30;;
16826;SDS011;8530;49.540;8.576;2022-12-18T00:10:42;70.50;;;36.57;;
16826;SDS011;8530;49.540;8.576;2022-12-18T00:13:09;70.20;;;37.47;;
16826;SDS011;8530;49.540;8.576;2022-12-18T00:15:37;67.73;;;34.10;;
16826;SDS011;8530;49.540;8.576;2022-12-18T00:18:05;65.17;;;37.00;;
16826;SDS011;8530;49.540;8.576;2022-12-18T00:20:35;70.70;;;36.37;;
16826;SDS011;8530;49.540;8.576;2022-12-18T00:23:02;61.33;;;34.80;;
16826;SDS011;8530;49.540;8.576;2022-12-18T00:25:29;63.97;;;35.50;;
16826;SDS011;8530;49.540;8.576;2022-12-18T00:27:59;70.07;;;39.17;;
16826;SDS011;8530;49.540;8.576;2022-12-18T00:30:26;67.17;;;38.67;;
16826;SDS011;8530;49.540;8.576;2022-12-18T00:32:53;71.93;;;37.63;;
16826;SDS011;8530;49.540;8.576;2022-12-18T00:35:20;69.30;;;37.60;;
16826;SDS011;8530;49.540;8.576;2022-12-18T00:37:47;66.60;;;36.33;;
16826;SDS011;8530;49.540;8.576;2022-12-18T00:40:14;64.53;;;36.60;;
16826;SDS011;8530;49.540;8.576;2022-12-18T00:42:41;63.97;;;34.87;;
16826;SDS011;8530;49.540;8.576;2022-12-18T00:45:23;59.33;;;37.27;;
16826;SDS011;8530;49.540;8.576;2022-12-18T00:47:50;60.70;;;35.10;;
16826;SDS011;8530;49.540;8.576;2022-12-18T00:50:17;64.43;;;35.77;;
16826;SDS011;8530;49.540;8.576;2022-12-18T00:52:44;58.60;;;35.30;;
16826;SDS011;8530;49.540;8.576;2022-12-18T00:55:11;66.23;;;38.33;;
16826;SDS011;8530;49.540;8.576;2022-12-18T00:57:39;73.80;;;35.13;;
16826;SDS011;8530;49.540;8.576;2022-12-18T01:00:06;57.73;;;33.27;;
16826;SDS011;8530;49.540;8.576;2022-12-18T01:02:40;68.80;;;37.93;;
16826;SDS011;8530;49.540;8.576;2022-12-18T01:05:07;62.33;;;37.30;;
16826;SDS011;8530;49.540;8.576;2022-12-18T01:07:34;65.57;;;35.80;;
16826;SDS011;8530;49.540;8.576;2022-12-18T01:10:01;70.90;;;38.20;;
16826;SDS011;8530;49.540;8.576;2022-12-18T01:12:28;51.07;;;32.30;;
16826;SDS011;8530;49.540;8.576;2022-12-18T01:14:55;62.73;;;36.73;;
16826;SDS011;8530;49.540;8.576;2022-12-18T01:17:21;58.43;;;35.70;;
16826;SDS011;8530;49.540;8.576;2022-12-18T01:19:50;64.13;;;38.27;;
16826;SDS011;8530;49.540;8.576;2022-12-18T01:22:16;66.10;;;38.00;;
16826;SDS011;8530;49.540;8.576;2022-12-18T01:24:43;57.80;;;33.60;;
16826;SDS011;8530;49.540;8.576;2022-12-18T01:27:10;77.57;;;38.57;;
16826;SDS011;8530;49.540;8.576;2022-12-18T01:29:36;68.20;;;35.87;;
16826;SDS011;8530;49.540;8.576;2022-12-18T01:32:03;70.27;;;34.43;;
16826;SDS011;8530;49.540;8.576;2022-12-18T01:34:31;59.83;;;34.87;;
16826;SDS011;8530;49.540;8.576;2022-12-18T01:36:59;63.47;;;35.50;;
16826;SDS011;8530;49.540;8.576;2022-12-18T01:39:29;59.67;;;34.90;;
16826;SDS011;8530;49.540;8.576;2022-12-18T01:41:57;68.80;;;37.07;;
16826;SDS011;8530;49.540;8.576;2022-12-18T01:44:50;56.17;;;35.13;;
16826;SDS011;8530;49.540;8.576;2022-12-18T01:47:21;57.47;;;32.23;;
16826;SDS011;8530;49.540;8.576;2022-12-18T01:49:51;69.80;;;37.60;;
16826;SDS011;8530;49.540;8.576;2022-12-18T01:52:20;65.10;;;36.67;;
16826;SDS011;8530;49.540;8.576;2022-12-18T01:54:48;62.73;;;37.27;;
16826;SDS011;8530;49.540;8.576;2022-12-18T01:57:18;72.93;;;39.07;;
16826;SDS011;8530;49.540;8.576;2022-12-18T01:59:46;66.93;;;38.30;;
16826;SDS011;8530;49.540;8.576;2022-12-18T02:02:15;75.40;;;35.07;;
16826;SDS011;8530;49.540;8.576;2022-12-18T02:04:43;64.83;;;33.20;;
16826;SDS011;8530;49.540;8.576;2022-12-18T02:07:11;63.83;;;34.80;;
16826;SDS011;8530;49.540;8.576;2022-12-18T02:09:45;61.33;;;31.90;;
16826;SDS011;8530;49.540;8.576;2022-12-18T02:12:16;61.60;;;37.50;;
16826;SDS011;8530;49.540;8.576;2022-12-18T02:14:48;66.83;;;36.60;;
16826;SDS011;8530;49.540;8.576;2022-12-18T02:17:22;62.83;;;32.70;;
16826;SDS011;8530;49.540;8.576;2022-12-18T02:19:58;73.13;;;35.93;;
16826;SDS011;8530;49.540;8.576;2022-12-18T02:22:34;64.40;;;34.77;;
16826;SDS011;8530;49.540;8.576;2022-12-18T02:25:16;66.30;;;35.60;;
16826;SDS011;8530;49.540;8.576;2022-12-18T02:27:56;70.93;;;35.63;;
16826;SDS011;8530;49.540;8.576;2022-12-18T02:30:28;62.53;;;34.00;;
16826;SDS011;8530;49.540;8.576;2022-12-18T02:32:57;53.10;;;32.50;;
16826;SDS011;8530;49.540;8.576;2022-12-18T02:35:27;69.37;;;39.90;;
16826;SDS011;8530;49.540;8.576;2022-12-18T02:37:56;75.40;;;35.40;;
16826;SDS011;8530;49.540;8.576;2022-12-18T02:40:24;72.13;;;35.97;;
16826;SDS011;8530;49.540;8.576;2022-12-18T02:43:03;115.17;;;40.13;;
16826;SDS011;8530;49.540;8.576;2022-12-18T02:45:33;75.93;;;40.80;;
16826;SDS011;8530;49.540;8.576;2022-12-18T02:48:00;74.57;;;33.53;;
16826;SDS011;8530;49.540;8.576;2022-12-18T02:50:29;62.33;;;35.60;;
16826;SDS011;8530;49.540;8.576;2022-12-18T02:53:02;63.17;;;37.17;;
16826;SDS011;8530;49.540;8.576;2022-12-18T02:55:42;70.53;;;35.97;;
16826;SDS011;8530;49.540;8.576;2022-12-18T02:58:19;66.43;;;35.60;;
16826;SDS011;8530;49.540;8.576;2022-12-18T03:00:56;65.03;;;35.70;;
16826;SDS011;8530;49.540;8.576;2022-12-18T03:03:28;68.00;;;35.90;;
16826;SDS011;8530;49.540;8.576;2022-12-18T03:06:02;61.07;;;34.27;;
16826;SDS011;8530;49.540;8.576;2022-12-18T03:08:33;70.03;;;36.53;;
16826;SDS011;8530;49.540;8.576;2022-12-18T03:11:05;62.00;;;35.20;;
16826;SDS011;8530;49.540;8.576;2022-12-18T03:13:36;63.37;;;34.67;;
16826;SDS011;8530;49.540;8.576;2022-12-18T03:16:06;59.23;;;35.23;;
16826;SDS011;8530;49.540;8.576;2022-12-18T03:18:37;65.33;;;35.27;;
16826;SDS011;8530;49.540;8.576;2022-12-18T03:21:08;63.20;;;33.03;;
16826;SDS011;8530;49.540;8.576;2022-12-18T03:23:38;61.70;;;33.87;;
16826;SDS011;8530;49.540;8.576;2022-12-18T03:26:09;64.20;;;35.27;;
16826;SDS011;8530;49.540;8.576;2022-12-18T03:28:42;66.30;;;35.97;;
16826;SDS011;8530;49.540;8.576;2022-12-18T03:31:14;63.37;;;35.73;;
16826;SDS011;8530;49.540;8.576;2022-12-18T03:33:43;57.90;;;34.23;;
16826;SDS011;8530;49.540;8.576;2022-12-18T03:36:17;59.30;;;35.47;;
16826;SDS011;8530;49.540;8.576;2022-12-18T03:38:45;55.83;;;33.57;;
16826;SDS011;8530;49.540;8.576;2022-12-18T03:41:15;57.50;;;36.30;;
16826;SDS011;8530;49.540;8.576;2022-12-18T03:43:52;60.43;;;34.07;;
16826;SDS011;8530;49.540;8.576;2022-12-18T03:46:24;57.90;;;35.60;;
16826;SDS011;8530;49.540;8.576;2022-12-18T03:48:56;59.80;;;33.23;;
16826;SDS011;8530;49.540;8.576;2022-12-18T03:51:30;51.73;;;33.43;;
16826;SDS011;8530;49.540;8.576;2022-12-18T03:54:04;66.97;;;35.27;;
16826;SDS011;8530;49.540;8.576;2022-12-18T03:56:40;60.10;;;36.40;;
16826;SDS011;8530;49.540;8.576;2022-12-18T03:59:13;55.97;;;34.80;;
16826;SDS011;8530;49.540;8.576;2022-12-18T04:01:43;61.43;;;32.77;;
16826;SDS011;8530;49.540;8.576;2022-12-18T04:04:13;54.50;;;35.00;;
16826;SDS011;8530;49.540;8.576;2022-12-18T04:06:43;59.57;;;35.40;;
16826;SDS011;8530;49.540;8.576;2022-12-18T04:09:12;59.43;;;34.00;;
16826;SDS011;8530;49.540;8.576;2022-12-18T04:11:40;63.23;;;35.13;;
16826;SDS011;8530;49.540;8.576;2022-12-18T04:14:09;53.20;;;33.97;;
16826;SDS011;8530;49.540;8.576;2022-12-18T04:16:38;56.27;;;34.87;;
16826;SDS011;8530;49.540;8.576;2022-12-18T04:19:05;56.43;;;33.20;;
16826;SDS011;8530;49.540;8.576;2022-12-18T04:21:32;64.70;;;33.17;;
16826;SDS011;8530;49.540;8.576;2022-12-18T04:23:59;60.30;;;35.53;;
16826;SDS011;8530;49.540;8.576;2022-12-18T04:26:26;59.03;;;35.53;;
16826;SDS011;8530;49.540;8.576;2022-12-18T04:28:53;59.00;;;35.03;;
16826;SDS011;8530;49.540;8.576;2022-12-18T04:31:20;57.10;;;31.70;;
16826;SDS011;8530;49.540;8.576;2022-12-18T04:33:48;59.60;;;34.30;;
16826;SDS011;8530;49.540;8.576;2022-12-18T04:36:15;61.50;;;32.17;;
16826;SDS011;8530;49.540;8.576;2022-12-18T04:38:41;60.83;;;34.43;;
16826;SDS011;8530;49.540;8.576;2022-12-18T04:41:08;58.30;;;33.47;;
16826;SDS011;8530;49.540;8.576;2022-12-18T04:43:35;56.57;;;32.80;;
16826;SDS011;8530;49.540;8.576;2022-12-18T04:46:02;58.33;;;34.33;;
16826;SDS011;8530;49.540;8.576;2022-12-18T04:48:30;59.80;;;36.60;;
16826;SDS011;8530;49.540;8.576;2022-12-18T04:50:58;62.27;;;34.37;;
16826;SDS011;8530;49.540;8.576;2022-12-18T04:53:25;57.03;;;34.60;;
16826;SDS011;8530;49.540;8.576;2022-12-18T04:56:01;59.20;;;36.83;;
16826;SDS011;8530;49.540;8.576;2022-12-18T04:58:29;65.67;;;35.77;;
16826;SDS011;8530;49.540;8.576;2022-12-18T05:00:56;56.87;;;36.33;;
16826;SDS011;8530;49.540;8.576;2022-12-18T05:03:22;57.63;;;35.63;;
16826;SDS011;8530;49.540;8.576;2022-12-18T05:05:49;60.87;;;32.80;;
16826;SDS011;8530;49.540;8.576;2022-12-18T05:08:18;61.33;;;34.83;;
16826;SDS011;8530;49.540;8.576;2022-12-18T05:10:45;55.87;;;31.07;;
16826;SDS011;8530;49.540;8.576;2022-12-18T05:13:12;62.13;;;34.70;;
16826;SDS011;8530;49.540;8.576;2022-12-18T05:15:39;55.57;;;33.70;;
16826;SDS011;8530;49.540;8.576;2022-12-18T05:18:07;63.53;;;35.17;;
16826;SDS011;8530;49.540;8.576;2022-12-18T05:20:34;61.00;;;34.70;;
16826;SDS011;8530;49.540;8.576;2022-12-18T05:23:01;59.30;;;34.27;;
16826;SDS011;8530;49.540;8.576;2022-12-18T05:25:29;57.37;;;34.40;;
16826;SDS011;8530;49.540;8.576;2022-12-18T05:27:56;63.47;;;34.27;;
16826;SDS011;8530;49.540;8.576;2022-12-18T05:30:22;53.37;;;33.47;;
16826;SDS011;8530;49.540;8.576;2022-12-18T05:32:49;80.10;;;36.40;;
16826;SDS011;8530;49.540;8.576;2022-12-18T05:35:16;70.13;;;34.60;;
16826;SDS011;8530;49.540;8.576;2022-12-18T05:37:43;62.53;;;34.10;;
16826;SDS011;8530;49.540;8.576;2022-12-18T05:40:11;58.57;;;32.57;;
16826;SDS011;8530;49.540;8.576;2022-12-18T05:42:39;58.07;;;31.50;;
16826;SDS011;8530;49.540;8.576;2022-12-18T05:45:06;55.90;;;34.47;;
16826;SDS011;8530;49.540;8.576;2022-12-18T05:47:35;64.50;;;34.30;;
16826;SDS011;8530;49.540;8.576;2022-12-18T05:50:04;84.47;;;36.27;;
16826;SDS011;8530;49.540;8.576;2022-12-18T05:52:32;72.93;;;36.87;;
16826;SDS011;8530;49.540;8.576;2022-12-18T05:54:59;64.30;;;34.67;;
16826;SDS011;8530;49.540;8.576;2022-12-18T05:57:25;76.93;;;38.60;;
16826;SDS011;8530;49.540;8.576;2022-12-18T05:59:53;68.50;;;37.50;;
16826;SDS011;8530;49.540;8.576;2022-12-18T06:02:20;82.50;;;43.33;;
16826;SDS011;8530;49.540;8.576;2022-12-18T06:04:47;79.07;;;41.63;;
16826;SDS011;8530;49.540;8.576;2022-12-18T06:07:14;87.93;;;41.60;;
16826;SDS011;8530;49.540;8.576;2022-12-18T06:09:40;79.63;;;41.20;;
16826;SDS011;8530;49.540;8.576;2022-12-18T06:12:07;76.40;;;38.63;;
16826;SDS011;8530;49.540;8.576;2022-12-18T06:14:34;83.60;;;40.40;;
16826;SDS011;8530;49.540;8.576;2022-12-18T06:17:02;85.20;;;43.80;;
16826;SDS011;8530;49.540;8.576;2022-12-18T06:19:29;81.13;;;41.70;;
16826;SDS011;8530;49.540;8.576;2022-12-18T06:21:55;76.20;;;36.90;;
16826;SDS011;8530;49.540;8.576;2022-12-18T06:24:23;81.03;;;36.77;;
16826;SDS011;8530;49.540;8.576;2022-12-18T06:26:50;89.63;;;42.20;;
16826;SDS011;8530;49.540;8.576;2022-12-18T06:29:17;102.70;;;40.67;;
16826;SDS011;8530;49.540;8.576;2022-12-18T06:31:43;83.30;;;39.90;;
16826;SDS011;8530;49.540;8.576;2022-12-18T06:34:11;98.90;;;37.13;;
16826;SDS011;8530;49.540;8.576;2022-12-18T06:36:38;95.43;;;42.27;;
16826;SDS011;8530;49.540;8.576;2022-12-18T06:39:06;75.87;;;40.17;;
16826;SDS011;8530;49.540;8.576;2022-12-18T06:41:32;87.17;;;40.30;;
16826;SDS011;8530;49.540;8.576;2022-12-18T06:43:59;85.30;;;39.60;;
16826;SDS011;8530;49.540;8.576;2022-12-18T06:46:26;72.00;;;37.50;;
16826;SDS011;8530;49.540;8.576;2022-12-18T06:48:54;72.67;;;36.40;;
16826;SDS011;8530;49.540;8.576;2022-12-18T06:51:23;81.10;;;36.90;;
16826;SDS011;8530;49.540;8.576;2022-12-18T06:53:50;77.83;;;35.90;;
16826;SDS011;8530;49.540;8.576;2022-12-18T06:56:17;94.13;;;41.10;;
16826;SDS011;8530;49.540;8.576;2022-12-18T06:58:43;95.77;;;41.20;;
16826;SDS011;8530;49.540;8.576;2022-12-18T07:01:10;76.90;;;40.10;;
16826;SDS011;8530;49.540;8.576;2022-12-18T07:03:38;68.97;;;36.40;;
16826;SDS011;8530;49.540;8.576;2022-12-18T07:06:06;76.40;;;39.20;;
16826;SDS011;8530;49.540;8.576;2022-12-18T07:08:39;97.87;;;43.50;;
16826;SDS011;8530;49.540;8.576;2022-12-18T07:11:06;75.33;;;44.13;;
16826;SDS011;8530;49.540;8.576;2022-12-18T07:13:33;76.87;;;39.90;;
16826;SDS011;8530;49.540;8.576;2022-12-18T07:16:04;79.10;;;43.17;;
16826;SDS011;8530;49.540;8.576;2022-12-18T07:18:32;92.27;;;43.10;;
16826;SDS011;8530;49.540;8.576;2022-12-18T07:21:02;79.70;;;39.50;;
16826;SDS011;8530;49.540;8.576;2022-12-18T07:23:32;79.93;;;38.80;;
16826;SDS011;8530;49.540;8.576;2022-12-18T07:26:01;74.10;;;39.13;;
16826;SDS011;8530;49.540;8.576;2022-12-18T07:28:29;77.97;;;40.53;;
16826;SDS011;8530;49.540;8.576;2022-12-18T07:30:56;81.13;;;40.50;;
16826;SDS011;8530;49.540;8.576;2022-12-18T07:33:26;79.77;;;40.37;;
16826;SDS011;8530;49.540;8.576;2022-12-18T07:35:53;86.40;;;41.20;;
16826;SDS011;8530;49.540;8.576;2022-12-18T07:38:19;76.50;;;40.43;;
16826;SDS011;8530;49.540;8.576;2022-12-18T07:40:47;87.97;;;42.87;;
16826;SDS011;8530;49.540;8.576;2022-12-18T07:43:17;80.90;;;40.83;;
16826;SDS011;8530;49.540;8.576;2022-12-18T07:45:44;79.77;;;39.80;;
16826;SDS011;8530;49.540;8.576;2022-12-18T07:48:11;75.43;;;39.10;;
16826;SDS011;8530;49.540;8.576;2022-12-18T07:50:38;76.27;;;40.27;;
16826;SDS011;8530;49.540;8.576;2022-12-18T07:53:05;86.40;;;42.60;;
16826;SDS011;8530;49.540;8.576;2022-12-18T07:55:32;82.20;;;41.10;;
16826;SDS011;8530;49.540;8.576;2022-12-18T07:58:00;83.47;;;40.33;;
16826;SDS011;8530;49.540;8.576;2022-12-18T08:00:29;78.87;;;40.63;;
16826;SDS011;8530;49.540;8.576;2022-12-18T08:02:57;70.00;;;38.90;;
16826;SDS011;8530;49.540;8.576;2022-12-18T08:05:23;74.53;;;40.47;;
16826;SDS011;8530;49.540;8.576;2022-12-18T08:07:51;85.40;;;39.03;;
16826;SDS011;8530;49.540;8.576;2022-12-18T08:10:18;77.20;;;37.77;;
16826;SDS011;8530;49.540;8.576;2022-12-18T08:12:45;87.53;;;42.73;;
16826;SDS011;8530;49.540;8.576;2022-12-18T08:15:14;78.97;;;38.03;;
16826;SDS011;8530;49.540;8.576;2022-12-18T08:17:43;62.00;;;35.93;;
16826;SDS011;8530;49.540;8.576;2022-12-18T08:20:10;85.43;;;38.73;;
16826;SDS011;8530;49.540;8.576;2022-12-18T08:22:38;74.70;;;38.33;;
16826;SDS011;8530;49.540;8.576;2022-12-18T08:25:06;68.60;;;39.43;;
16826;SDS011;8530;49.540;8.576;2022-12-18T08:27:34;73.43;;;40.03;;
16826;SDS011;8530;49.540;8.576;2022-12-18T08:30:01;65.47;;;36.43;;
16826;SDS011;8530;49.540;8.576;2022-12-18T08:32:28;69.47;;;39.20;;
16826;SDS011;8530;49.540;8.576;2022-12-18T08:34:57;75.70;;;38.70;;
16826;SDS011;8530;49.540;8.576;2022-12-18T08:37:23;63.97;;;37.03;;
16826;SDS011;8530;49.540;8.576;2022-12-18T08:39:50;62.27;;;35.77;;
16826;SDS011;8530;49.540;8.576;2022-12-18T08:42:17;68.50;;;36.60;;
16826;SDS011;8530;49.540;8.576;2022-12-18T08:45:01;61.77;;;37.53;;
16826;SDS011;8530;49.540;8.576;2022-12-18T08:47:29;63.83;;;36.50;;
16826;SDS011;8530;49.540;8.576;2022-12-18T08:50:00;74.20;;;36.30;;
16826;SDS011;8530;49.540;8.576;2022-12-18T08:52:33;67.97;;;38.07;;
16826;SDS011;8530;49.540;8.576;2022-12-18T08:55:03;66.93;;;38.97;;
16826;SDS011;8530;49.540;8.576;2022-12-18T08:57:31;64.27;;;36.70;;
16826;SDS011;8530;49.540;8.576;2022-12-18T09:00:00;64.07;;;36.20;;
16826;SDS011;8530;49.540;8.576;2022-12-18T09:02:26;66.07;;;37.43;;
16826;SDS011;8530;49.540;8.576;2022-12-18T09:04:53;78.87;;;37.77;;
16826;SDS011;8530;49.540;8.576;2022-12-18T09:07:21;71.00;;;40.57;;
16826;SDS011;8530;49.540;8.576;2022-12-18T09:09:48;74.63;;;41.20;;
16826;SDS011;8530;49.540;8.576;2022-12-18T09:12:15;68.27;;;38.30;;
16826;SDS011;8530;49.540;8.576;2022-12-18T09:14:42;64.40;;;38.40;;
16826;SDS011;8530;49.540;8.576;2022-12-18T09:17:09;61.93;;;36.03;;
16826;SDS011;8530;49.540;8.576;2022-12-18T09:19:36;63.33;;;36.40;;
16826;SDS011;8530;49.540;8.576;2022-12-18T09:22:06;62.83;;;35.27;;
16826;SDS011;8530;49.540;8.576;2022-12-18T09:24:34;73.17;;;39.97;;
16826;SDS011;8530;49.540;8.576;2022-12-18T09:27:01;67.80;;;37.07;;
16826;SDS011;8530;49.540;8.576;2022-12-18T09:29:28;79.50;;;40.70;;
16826;SDS011;8530;49.540;8.576;2022-12-18T09:31:55;74.17;;;38.30;;
16826;SDS011;8530;49.540;8.576;2022-12-18T09:34:23;67.27;;;36.43;;
16826;SDS011;8530;49.540;8.576;2022-12-18T09:36:50;68.93;;;37.17;;
16826;SDS011;8530;49.540;8.576;2022-12-18T09:39:17;66.80;;;35.27;;
16826;SDS011;8530;49.540;8.576;2022-12-18T09:41:50;65.73;;;37.40;;
16826;SDS011;8530;49.540;8.576;2022-12-18T09:44:26;58.50;;;34.93;;
16826;SDS011;8530;49.540;8.576;2022-12-18T09:47:08;63.07;;;36.33;;
16826;SDS011;8530;49.540;8.576;2022-12-18T09:49:42;69.87;;;38.87;;
16826;SDS011;8530;49.540;8.576;2022-12-18T09:52:12;65.17;;;37.47;;
16826;SDS011;8530;49.540;8.576;2022-12-18T09:54:44;58.33;;;35.90;;
16826;SDS011;8530;49.540;8.576;2022-12-18T09:57:16;67.67;;;36.57;;
16826;SDS011;8530;49.540;8.576;2022-12-18T09:59:46;73.63;;;41.10;;
16826;SDS011;8530;49.540;8.576;2022-12-18T10:02:16;65.70;;;38.90;;
16826;SDS011;8530;49.540;8.576;2022-12-18T10:04:47;77.50;;;42.83;;
16826;SDS011;8530;49.540;8.576;2022-12-18T10:07:21;73.10;;;43.93;;
16826;SDS011;8530;49.540;8.576;2022-12-18T10:09:58;62.30;;;38.57;;
16826;SDS011;8530;49.540;8.576;2022-12-18T10:12:35;69.17;;;38.80;;
16826;SDS011;8530;49.540;8.576;2022-12-18T10:15:11;59.37;;;36.03;;
16826;SDS011;8530;49.540;8.576;2022-12-18T10:17:47;65.00;;;37.53;;
16826;SDS011;8530;49.540;8.576;2022-12-18T10:20:18;64.27;;;36.80;;
16826;SDS011;8530;49.540;8.576;2022-12-18T10:22:53;64.73;;;37.60;;
16826;SDS011;8530;49.540;8.576;2022-12-18T10:25:30;57.97;;;36.77;;
16826;SDS011;8530;49.540;8.576;2022-12-18T10:28:06;66.53;;;38.47;;
16826;SDS011;8530;49.540;8.576;2022-12-18T10:30:37;59.70;;;35.03;;
16826;SDS011;8530;49.540;8.576;2022-12-18T10:33:05;57.07;;;35.10;;
16826;SDS011;8530;49.540;8.576;2022-12-18T10:35:37;55.97;;;35.23;;
16826;SDS011;8530;49.540;8.576;2022-12-18T10:38:19;63.27;;;35.57;;
16826;SDS011;8530;49.540;8.576;2022-12-18T10:40:49;62.53;;;37.20;;
16826;SDS011;8530;49.540;8.576;2022-12-18T10:43:23;60.47;;;35.00;;
16826;SDS011;8530;49.540;8.576;2022-12-18T10:46:01;59.80;;;34.40;;
16826;SDS011;8530;49.540;8.576;2022-12-18T10:48:47;70.37;;;36.10;;
16826;SDS011;8530;49.540;8.576;2022-12-18T10:51:22;55.10;;;35.47;;
16826;SDS011;8530;49.540;8.576;2022-12-18T10:53:53;62.37;;;35.83;;
16826;SDS011;8530;49.540;8.576;2022-12-18T10:56:23;62.20;;;33.40;;
16826;SDS011;8530;49.540;8.576;2022-12-18T10:58:57;65.60;;;36.97;;
16826;SDS011;8530;49.540;8.576;2022-12-18T11:01:26;62.60;;;33.57;;
16826;SDS011;8530;49.540;8.576;2022-12-18T11:04:01;57.63;;;33.73;;
16826;SDS011;8530;49.540;8.576;2022-12-18T11:06:33;63.47;;;35.63;;
16826;SDS011;8530;49.540;8.576;2022-12-18T11:09:19;59.97;;;34.03;;
16826;SDS011;8530;49.540;8.576;2022-12-18T11:11:48;57.73;;;32.23;;
16826;SDS011;8530;49.540;8.576;2022-12-18T11:14:20;67.10;;;37.43;;
16826;SDS011;8530;49.540;8.576;2022-12-18T11:16:50;69.97;;;37.80;;
16826;SDS011;8530;49.540;8.576;2022-12-18T11:19:30;57.37;;;34.50;;
16826;SDS011;8530;49.540;8.576;2022-12-18T11:21:59;52.37;;;34.03;;
16826;SDS011;8530;49.540;8.576;2022-12-18T11:24:29;62.70;;;36.50;;
16826;SDS011;8530;49.540;8.576;2022-12-18T11:26:57;65.53;;;35.47;;
16826;SDS011;8530;49.540;8.576;2022-12-18T11:29:31;59.50;;;37.90;;
16826;SDS011;8530;49.540;8.576;2022-12-18T11:34:51;62.33;;;35.63;;
16826;SDS011;8530;49.540;8.576;2022-12-18T11:37:25;58.20;;;33.37;;
16826;SDS011;8530;49.540;8.576;2022-12-18T11:39:54;65.13;;;36.10;;
16826;SDS011;8530;49.540;8.576;2022-12-18T11:42:27;61.93;;;38.37;;
16826;SDS011;8530;49.540;8.576;2022-12-18T11:45:07;57.40;;;34.17;;
16826;SDS011;8530;49.540;8.576;2022-12-18T11:47:48;64.57;;;38.43;;
16826;SDS011;8530;49.540;8.576;2022-12-18T11:50:22;62.00;;;38.37;;
16826;SDS011;8530;49.540;8.576;2022-12-18T11:52:50;62.27;;;34.93;;
16826;SDS011;8530;49.540;8.576;2022-12-18T11:55:19;68.03;;;40.43;;
16826;SDS011;8530;49.540;8.576;2022-12-18T11:57:55;57.30;;;33.30;;
16826;SDS011;8530;49.540;8.576;2022-12-18T12:00:30;61.93;;;37.43;;
16826;SDS011;8530;49.540;8.576;2022-12-18T12:03:04;56.53;;;34.43;;
16826;SDS011;8530;49.540;8.576;2022-12-18T12:06:03;63.20;;;36.60;;
16826;SDS011;8530;49.540;8.576;2022-12-18T12:08:45;63.90;;;36.67;;
16826;SDS011;8530;49.540;8.576;2022-12-18T12:11:26;56.80;;;35.00;;
16826;SDS011;8530;49.540;8.576;2022-12-18T12:14:05;53.30;;;32.90;;
16826;SDS011;8530;49.540;8.576;2022-12-18T12:16:46;62.83;;;33.83;;
16826;SDS011;8530;49.540;8.576;2022-12-18T12:19:26;59.20;;;34.70;;
16826;SDS011;8530;49.540;8.576;2022-12-18T12:22:04;62.20;;;38.00;;
16826;SDS011;8530;49.540;8.576;2022-12-18T12:24:39;64.40;;;35.77;;
16826;SDS011;8530;49.540;8.576;2022-12-18T12:27:17;60.07;;;35.53;;
16826;SDS011;8530;49.540;8.576;2022-12-18T12:29:56;57.73;;;35.50;;
16826;SDS011;8530;49.540;8.576;2022-12-18T12:32:35;58.47;;;35.87;;
16826;SDS011;8530;49.540;8.576;2022-12-18T12:35:20;54.13;;;35.83;;
16826;SDS011;8530;49.540;8.576;2022-12-18T12:37:59;62.10;;;37.80;;
16826;SDS011;8530;49.540;8.576;2022-12-18T12:40:34;61.03;;;36.10;;
16826;SDS011;8530;49.540;8.576;2022-12-18T12:43:05;61.33;;;37.67;;
16826;SDS011;8530;49.540;8.576;2022-12-18T12:45:45;60.37;;;37.97;;
16826;SDS011;8530;49.540;8.576;2022-12-18T12:48:18;61.20;;;37.60;;
16826;SDS011;8530;49.540;8.576;2022-12-18T12:50:58;60.40;;;36.83;;
16826;SDS011;8530;49.540;8.576;2022-12-18T12:53:29;62.10;;;37.87;;
16826;SDS011;8530;49.540;8.576;2022-12-18T12:56:03;61.57;;;38.57;;
16826;SDS011;8530;49.540;8.576;2022-12-18T12:58:33;64.90;;;36.27;;
16826;SDS011;8530;49.540;8.576;2022-12-18T13:01:08;63.00;;;39.50;;
16826;SDS011;8530;49.540;8.576;2022-12-18T13:03:46;62.03;;;40.60;;
16826;SDS011;8530;49.540;8.576;2022-12-18T13:06:23;62.30;;;38.50;;
16826;SDS011;8530;49.540;8.576;2022-12-18T13:08:58;54.20;;;33.87;;
16826;SDS011;8530;49.540;8.576;2022-12-18T13:11:28;58.53;;;40.67;;
16826;SDS011;8530;49.540;8.576;2022-12-18T13:14:23;66.47;;;37.37;;
16826;SDS011;8530;49.540;8.576;2022-12-18T13:19:43;63.17;;;38.07;;
16826;SDS011;8530;49.540;8.576;2022-12-18T13:22:20;64.23;;;37.27;;
16826;SDS011;8530;49.540;8.576;2022-12-18T13:24:48;60.13;;;35.60;;
16826;SDS011;8530;49.540;8.576;2022-12-18T13:36:12;59.00;;;35.70;;
16826;SDS011;8530;49.540;8.576;2022-12-18T13:38:42;59.33;;;36.70;;
16826;SDS011;8530;49.540;8.576;2022-12-18T13:41:23;57.63;;;36.13;;
16826;SDS011;8530;49.540;8.576;2022-12-18T13:43:53;66.20;;;39.00;;
16826;SDS011;8530;49.540;8.576;2022-12-18T13:46:41;55.53;;;37.77;;
16826;SDS011;8530;49.540;8.576;2022-12-18T13:49:17;59.57;;;35.13;;
16826;SDS011;8530;49.540;8.576;2022-12-18T13:51:50;58.50;;;36.03;;
16826;SDS011;8530;49.540;8.576;2022-12-18T13:54:21;52.77;;;35.50;;
16826;SDS011;8530;49.540;8.576;2022-12-18T13:56:55;53.63;;;33.53;;
16826;SDS011;8530;49.540;8.576;2022-12-18T13:59:32;55.93;;;35.07;;
16826;SDS011;8530;49.540;8.576;2022-12-18T14:02:00;66.20;;;37.97;;
16826;SDS011;8530;49.540;8.576;2022-12-18T14:04:35;59.27;;;36.90;;
16826;SDS011;8530;49.540;8.576;2022-12-18T14:07:04;55.80;;;35.80;;
16826;SDS011;8530;49.540;8.576;2022-12-18T14:09:35;59.37;;;35.90;;
16826;SDS011;8530;49.540;8.576;2022-12-18T14:12:03;62.27;;;38.60;;
16826;SDS011;8530;49.540;8.576;2022-12-18T14:14:50;58.17;;;37.83;;
16826;SDS011;8530;49.540;8.576;2022-12-18T14:17:18;63.60;;;37.50;;
16826;SDS011;8530;49.540;8.576;2022-12-18T14:19:47;69.07;;;41.97;;
16826;SDS011;8530;49.540;8.576;2022-12-18T14:22:19;57.43;;;38.43;;
16826;SDS011;8530;49.540;8.576;2022-12-18T14:24:47;55.90;;;37.00;;
16826;SDS011;8530;49.540;8.576;2022-12-18T14:27:36;61.10;;;36.13;;
16826;SDS011;8530;49.540;8.576;2022-12-18T14:30:18;59.70;;;40.07;;
16826;SDS011;8530;49.540;8.576;2022-12-18T14:32:59;68.60;;;40.33;;
16826;SDS011;8530;49.540;8.576;2022-12-18T14:35:27;86.43;;;47.70;;
16826;SDS011;8530;49.540;8.576;2022-12-18T14:37:55;72.43;;;44.00;;
16826;SDS011;8530;49.540;8.576;2022-12-18T14:40:57;66.37;;;42.90;;
16826;SDS011;8530;49.540;8.576;2022-12-18T14:43:26;82.93;;;46.03;;
16826;SDS011;8530;49.540;8.576;2022-12-18T14:45:54;67.93;;;43.93;;
16826;SDS011;8530;49.540;8.576;2022-12-18T14:48:22;63.20;;;42.63;;
16826;SDS011;8530;49.540;8.576;2022-12-18T14:50:58;68.17;;;43.33;;
16826;SDS011;8530;49.540;8.576;2022-12-18T14:53:31;65.27;;;40.77;;
16826;SDS011;8530;49.540;8.576;2022-12-18T14:56:03;71.27;;;42.83;;
16826;SDS011;8530;49.540;8.576;2022-12-18T14:58:44;73.37;;;45.17;;
16826;SDS011;8530;49.540;8.576;2022-12-18T15:01:18;69.40;;;39.63;;
16826;SDS011;8530;49.540;8.576;2022-12-18T15:03:49;66.27;;;40.60;;
16826;SDS011;8530;49.540;8.576;2022-12-18T15:06:17;60.27;;;39.40;;
16826;SDS011;8530;49.540;8.576;2022-12-18T15:08:52;67.73;;;43.97;;